createdAt,value
2018-09-04T00:00:41.696Z,4.63
2018-09-04T00:03:10.054Z,4.23
2018-09-04T00:05:38.366Z,4.90
2018-09-04T00:08:06.621Z,4.93
2018-09-04T00:10:34.884Z,4.83
2018-09-04T00:13:03.081Z,5.33
2018-09-04T00:15:31.400Z,4.40
2018-09-04T00:18:00.070Z,4.87
2018-09-04T00:20:28.438Z,5.23
2018-09-04T00:22:56.688Z,5.10
2018-09-04T00:25:25.047Z,4.73
2018-09-04T00:27:53.282Z,4.70
2018-09-04T00:30:21.722Z,4.80
2018-09-04T00:32:50.061Z,5.33
2018-09-04T00:35:18.379Z,4.47
2018-09-04T00:37:46.684Z,4.67
2018-09-04T00:40:15.015Z,4.87
2018-09-04T00:42:43.281Z,5.30
2018-09-04T00:45:11.939Z,5.10
2018-09-04T00:47:40.359Z,5.37
2018-09-04T00:50:08.598Z,4.87
2018-09-04T00:52:36.868Z,5.50
2018-09-04T00:55:05.268Z,5.63
2018-09-04T00:57:33.679Z,5.47
2018-09-04T01:00:01.932Z,5.80
2018-09-04T01:02:30.230Z,6.27
2018-09-04T01:04:58.463Z,5.73
2018-09-04T01:07:26.781Z,6.23
2018-09-04T01:09:55.168Z,6.23
2018-09-04T01:12:23.438Z,6.13
2018-09-04T01:14:55.402Z,5.70
2018-09-04T01:17:23.745Z,5.83
2018-09-04T01:19:52.011Z,6.10
2018-09-04T01:22:20.424Z,6.57
2018-09-04T01:24:48.615Z,6.43
2018-09-04T01:27:16.807Z,5.93
2018-09-04T01:29:45.054Z,6.30
2018-09-04T01:32:13.406Z,6.23
2018-09-04T01:34:41.675Z,7.73
2018-09-04T01:37:09.958Z,7.43
2018-09-04T01:39:38.477Z,7.57
2018-09-04T01:42:06.848Z,7.93
2018-09-04T01:44:35.114Z,7.13
2018-09-04T01:47:03.488Z,7.80
2018-09-04T01:49:31.683Z,7.30
2018-09-04T01:51:59.981Z,7.57
2018-09-04T01:54:28.193Z,7.67
2018-09-04T01:56:56.575Z,7.77
2018-09-04T01:59:24.869Z,7.87
2018-09-04T02:01:53.084Z,8.13
2018-09-04T02:04:21.550Z,8.73
2018-09-04T02:06:49.800Z,8.50
2018-09-04T02:09:17.988Z,7.97
2018-09-04T02:11:46.245Z,8.13
2018-09-04T02:14:14.630Z,8.53
2018-09-04T02:16:42.848Z,9.60
2018-09-04T02:19:11.215Z,9.50
2018-09-04T02:21:39.401Z,8.47
2018-09-04T02:24:07.741Z,8.80
2018-09-04T02:26:35.998Z,8.63
2018-09-04T02:29:04.145Z,7.90
2018-09-04T02:31:32.430Z,8.60
2018-09-04T02:34:00.779Z,8.60
2018-09-04T02:36:29.043Z,10.10
2018-09-04T02:38:57.441Z,9.57
2018-09-04T02:41:25.671Z,9.43
2018-09-04T02:43:54.125Z,9.00
2018-09-04T02:46:22.554Z,9.47
2018-09-04T02:48:51.044Z,8.70
2018-09-04T02:51:19.316Z,8.00
2018-09-04T02:53:47.560Z,9.00
2018-09-04T02:56:16.072Z,8.60
2018-09-04T02:58:44.305Z,9.13
2018-09-04T03:01:12.511Z,8.97
2018-09-04T03:03:40.800Z,8.60
2018-09-04T03:06:09.058Z,9.43
2018-09-04T03:08:37.293Z,8.90
2018-09-04T03:11:05.711Z,9.50
2018-09-04T03:13:33.939Z,10.00
2018-09-04T03:16:02.149Z,8.90
2018-09-04T03:18:30.534Z,10.17
2018-09-04T03:20:58.753Z,10.50
2018-09-04T03:23:27.007Z,9.90
2018-09-04T03:25:55.394Z,10.83
2018-09-04T03:28:23.571Z,10.20
2018-09-04T03:30:54.881Z,10.40
2018-09-04T03:33:23.099Z,9.90
2018-09-04T03:35:51.352Z,11.07
2018-09-04T03:38:19.533Z,11.50
2018-09-04T03:40:47.841Z,10.43
2018-09-04T03:43:16.113Z,11.13
2018-09-04T03:45:44.407Z,10.73
2018-09-04T03:48:12.769Z,10.60
2018-09-04T03:50:41.225Z,10.40
2018-09-04T03:53:11.105Z,11.40
2018-09-04T03:55:37.836Z,10.90
2018-09-04T03:58:06.281Z,11.10
2018-09-04T04:00:34.579Z,10.83
2018-09-04T04:03:02.833Z,10.30
2018-09-04T04:05:31.142Z,11.47
2018-09-04T04:07:59.357Z,11.00
2018-09-04T04:10:27.620Z,9.93
2018-09-04T04:12:56.007Z,10.90
2018-09-04T04:15:24.286Z,10.70
2018-09-04T04:17:52.497Z,11.40
2018-09-04T04:20:20.835Z,11.27
2018-09-04T04:22:49.224Z,11.27
2018-09-04T04:25:17.631Z,11.90
2018-09-04T04:27:46.009Z,11.43
2018-09-04T04:30:14.390Z,11.37
2018-09-04T04:32:42.667Z,11.40
2018-09-04T04:35:11.037Z,11.73
2018-09-04T04:37:39.415Z,11.43
2018-09-04T04:40:08.003Z,11.83
2018-09-04T04:42:36.213Z,12.33
2018-09-04T04:45:04.645Z,13.03
2018-09-04T04:47:47.883Z,12.20
2018-09-04T04:50:16.262Z,12.60
2018-09-04T04:52:44.615Z,13.30
2018-09-04T04:55:13.039Z,12.93
2018-09-04T04:57:41.189Z,13.47
2018-09-04T05:00:09.463Z,13.00
2018-09-04T05:02:37.781Z,13.97
2018-09-04T05:05:06.005Z,13.37
2018-09-04T05:07:34.164Z,12.80
2018-09-04T05:10:02.384Z,14.40
2018-09-04T05:12:30.601Z,13.93
2018-09-04T05:14:58.806Z,13.77
2018-09-04T05:17:27.108Z,13.73
2018-09-04T05:19:55.396Z,13.60
2018-09-04T05:22:23.945Z,13.77
2018-09-04T05:24:52.227Z,13.93
2018-09-04T05:27:20.532Z,14.60
2018-09-04T05:29:48.696Z,14.27
2018-09-04T05:32:24.208Z,14.20
2018-09-04T05:34:52.489Z,14.57
2018-09-04T05:37:20.660Z,14.33
2018-09-04T05:39:48.852Z,14.50
2018-09-04T05:42:35.079Z,15.27
2018-09-04T05:45:04.452Z,17.33
2018-09-04T05:47:34.600Z,15.67
2018-09-04T05:50:03.418Z,16.67
2018-09-04T05:52:31.835Z,15.33
2018-09-04T05:55:00.285Z,16.97
2018-09-04T05:57:28.597Z,16.10
2018-09-04T05:59:56.914Z,17.10
2018-09-04T06:02:25.154Z,16.47
2018-09-04T06:04:53.414Z,16.90
2018-09-04T06:07:21.638Z,16.53
2018-09-04T06:09:50.992Z,16.90
2018-09-04T06:12:19.647Z,16.50
2018-09-04T06:14:48.036Z,15.40
2018-09-04T06:17:16.358Z,15.37
2018-09-04T06:19:44.636Z,15.90
2018-09-04T06:22:13.027Z,16.00
2018-09-04T06:24:41.336Z,15.30
2018-09-04T06:27:09.769Z,15.47
2018-09-04T06:29:38.345Z,16.03
2018-09-04T06:32:06.548Z,15.87
2018-09-04T06:34:35.334Z,15.83
2018-09-04T06:37:03.713Z,16.03
2018-09-04T06:39:32.033Z,15.43
2018-09-04T06:42:00.287Z,16.50
2018-09-04T06:44:28.697Z,16.47
2018-09-04T06:46:56.943Z,16.43
2018-09-04T06:49:25.191Z,16.33
2018-09-04T06:51:53.781Z,14.77
2018-09-04T06:54:22.059Z,15.07
2018-09-04T06:56:50.361Z,16.30
2018-09-04T06:59:18.641Z,15.73
2018-09-04T07:01:46.989Z,15.97
2018-09-04T07:04:15.282Z,15.90
2018-09-04T07:06:43.675Z,15.33
2018-09-04T07:09:13.866Z,14.03
2018-09-04T07:11:43.348Z,15.63
2018-09-04T07:14:11.575Z,14.17
2018-09-04T07:16:43.895Z,15.13
2018-09-04T07:19:17.331Z,15.33
2018-09-04T07:21:45.599Z,14.97
2018-09-04T07:24:14.522Z,15.27
2018-09-04T07:26:42.884Z,15.10
2018-09-04T07:29:11.293Z,15.77
2018-09-04T07:31:39.719Z,16.60
2018-09-04T07:34:08.099Z,17.50
2018-09-04T07:36:37.306Z,16.70
2018-09-04T07:39:08.610Z,15.50
2018-09-04T07:41:37.057Z,15.27
2018-09-04T07:44:05.324Z,14.90
2018-09-04T07:46:33.598Z,14.17
2018-09-04T07:49:02.100Z,14.10
2018-09-04T07:51:30.314Z,13.73
2018-09-04T07:53:58.655Z,13.60
2018-09-04T07:56:26.908Z,13.73
2018-09-04T07:58:55.258Z,13.30
2018-09-04T08:01:23.551Z,12.87
2018-09-04T08:03:51.837Z,12.50
2018-09-04T08:06:20.204Z,11.83
2018-09-04T08:08:48.449Z,12.17
2018-09-04T08:11:16.696Z,12.93
2018-09-04T08:13:45.553Z,11.40
2018-09-04T08:16:13.867Z,10.43
2018-09-04T08:18:42.064Z,10.07
2018-09-04T08:21:10.412Z,9.47
2018-09-04T08:23:38.807Z,10.17
2018-09-04T08:26:07.133Z,10.30
2018-09-04T08:28:35.495Z,9.73
2018-09-04T08:31:03.842Z,9.47
2018-09-04T08:33:32.157Z,8.43
2018-09-04T08:36:00.415Z,8.27
2018-09-04T08:38:28.822Z,8.30
2018-09-04T08:40:57.096Z,7.40
2018-09-04T08:43:25.416Z,8.13
2018-09-04T08:45:53.735Z,7.20
2018-09-04T08:48:22.491Z,7.97
2018-09-04T08:50:50.783Z,7.90
2018-09-04T08:53:19.056Z,7.90
2018-09-04T08:55:47.377Z,6.50
2018-09-04T08:58:15.633Z,6.60
2018-09-04T09:00:44.294Z,6.80
2018-09-04T09:03:12.485Z,7.77
2018-09-04T09:05:40.813Z,7.17
2018-09-04T09:08:09.023Z,6.03
2018-09-04T09:10:37.241Z,6.97
2018-09-04T09:13:05.704Z,7.03
2018-09-04T09:15:33.958Z,7.30
2018-09-04T09:18:02.358Z,6.93
2018-09-04T09:20:30.656Z,6.50
2018-09-04T09:22:59.205Z,6.47
2018-09-04T09:25:27.556Z,6.80
2018-09-04T09:27:56.342Z,7.40
2018-09-04T09:30:24.696Z,6.87
2018-09-04T09:32:52.874Z,6.83
2018-09-04T09:35:21.389Z,6.33
2018-09-04T09:37:49.553Z,7.10
2018-09-04T09:40:23.293Z,7.13
2018-09-04T09:42:51.622Z,6.67
2018-09-04T09:45:19.934Z,6.40
2018-09-04T09:47:52.106Z,5.63
2018-09-04T09:50:21.657Z,6.10
2018-09-04T09:52:50.035Z,6.67
2018-09-04T09:55:18.513Z,5.63
2018-09-04T09:57:46.843Z,5.43
2018-09-04T10:00:33.097Z,5.50
2018-09-04T10:03:06.526Z,5.60
2018-09-04T10:05:33.412Z,6.30
2018-09-04T10:08:04.599Z,5.97
2018-09-04T10:10:32.972Z,5.23
2018-09-04T10:13:01.346Z,5.03
2018-09-04T10:15:29.648Z,5.10
2018-09-04T10:17:58.028Z,6.43
2018-09-04T10:20:26.410Z,4.80
2018-09-04T10:22:55.131Z,4.60
2018-09-04T10:25:23.548Z,6.37
2018-09-04T10:27:52.479Z,5.67
2018-09-04T10:30:21.038Z,4.90
2018-09-04T10:32:53.980Z,4.93
2018-09-04T10:35:23.476Z,5.00
2018-09-04T10:37:52.281Z,5.63
2018-09-04T10:40:38.132Z,7.53
2018-09-04T10:43:06.587Z,6.33
2018-09-04T10:45:52.834Z,5.90
2018-09-04T10:48:26.905Z,6.20
2018-09-04T10:50:55.373Z,4.70
2018-09-04T10:53:23.653Z,4.73
2018-09-04T10:55:52.046Z,5.17
2018-09-04T10:58:20.376Z,5.07
2018-09-04T11:00:48.719Z,5.50
2018-09-04T11:03:17.122Z,5.27
2018-09-04T11:05:45.432Z,4.87
2018-09-04T11:08:13.759Z,5.80
2018-09-04T11:10:42.210Z,4.53
2018-09-04T11:13:10.584Z,5.40
2018-09-04T11:15:39.154Z,5.23
2018-09-04T11:18:07.657Z,5.40
2018-09-04T11:20:36.075Z,4.50
2018-09-04T11:23:04.754Z,4.70
2018-09-04T11:25:32.955Z,4.30
2018-09-04T11:28:01.360Z,4.63
2018-09-04T11:30:29.752Z,4.60
2018-09-04T11:32:58.513Z,5.00
2018-09-04T11:35:26.905Z,4.80
2018-09-04T11:37:55.617Z,5.03
2018-09-04T11:40:31.954Z,4.83
2018-09-04T11:43:00.124Z,4.63
2018-09-04T11:45:28.664Z,4.07
2018-09-04T11:47:59.162Z,4.37
2018-09-04T11:50:27.671Z,4.33
2018-09-04T11:52:56.063Z,4.60
2018-09-04T11:55:24.874Z,4.63
2018-09-04T11:57:53.697Z,5.10
2018-09-04T12:00:41.020Z,4.40
2018-09-04T12:03:13.510Z,3.87
2018-09-04T12:05:42.217Z,5.37
2018-09-04T12:08:10.803Z,4.23
2018-09-04T12:10:39.654Z,3.80
2018-09-04T12:13:07.973Z,3.83
2018-09-04T12:15:39.840Z,3.80
2018-09-04T12:18:09.342Z,4.33
2018-09-04T12:20:45.043Z,4.97
2018-09-04T12:23:13.309Z,3.93
2018-09-04T12:25:42.176Z,3.83
2018-09-04T12:28:10.551Z,3.83
2018-09-04T12:30:38.810Z,4.00
2018-09-04T12:33:07.201Z,3.53
2018-09-04T12:35:35.939Z,3.23
2018-09-04T12:38:04.974Z,3.33
2018-09-04T12:40:33.441Z,3.40
2018-09-04T12:43:02.912Z,3.90
2018-09-04T12:45:49.598Z,3.20
2018-09-04T12:48:30.782Z,3.23
2018-09-04T12:51:00.489Z,3.43
2018-09-04T12:53:30.123Z,3.03
2018-09-04T12:55:58.559Z,3.43
2018-09-04T12:58:27.119Z,6.03
2018-09-04T13:00:56.695Z,3.20
2018-09-04T13:03:26.196Z,3.40
2018-09-04T13:05:54.771Z,4.70
2018-09-04T13:08:24.745Z,3.60
2018-09-04T13:10:53.085Z,3.00
2018-09-04T13:13:21.567Z,3.13
2018-09-04T13:16:08.429Z,3.27
2018-09-04T13:18:36.950Z,3.30
2018-09-04T13:21:06.004Z,3.23
2018-09-04T13:23:35.449Z,3.50
2018-09-04T13:26:04.207Z,2.77
2018-09-04T13:28:33.364Z,3.23
2018-09-04T13:31:01.745Z,3.60
2018-09-04T13:33:30.166Z,3.50
2018-09-04T13:35:58.499Z,3.10
2018-09-04T13:38:27.708Z,3.20
2018-09-04T13:41:14.954Z,3.73
2018-09-04T13:43:43.279Z,3.50
2018-09-04T13:46:11.639Z,3.47
2018-09-04T13:48:40.131Z,3.43
2018-09-04T13:51:08.748Z,3.00
2018-09-04T13:53:37.001Z,3.07
2018-09-04T13:56:05.336Z,3.20
2018-09-04T13:58:33.800Z,3.47
2018-09-04T14:01:02.034Z,3.23
2018-09-04T14:03:30.312Z,3.53
2018-09-04T14:05:58.566Z,3.33
2018-09-04T14:08:26.815Z,3.07
2018-09-04T14:10:55.158Z,3.30
2018-09-04T14:13:23.395Z,2.97
2018-09-04T14:15:52.563Z,2.90
2018-09-04T14:18:20.897Z,3.03
2018-09-04T14:20:49.306Z,3.50
2018-09-04T14:23:17.666Z,3.13
2018-09-04T14:25:46.080Z,3.70
2018-09-04T14:28:40.963Z,3.43
2018-09-04T14:30:42.839Z,3.97
2018-09-04T14:33:11.092Z,4.00
2018-09-04T14:35:39.484Z,3.57
2018-09-04T14:38:07.909Z,3.67
2018-09-04T14:40:36.143Z,3.57
2018-09-04T14:43:04.580Z,3.90
2018-09-04T14:45:32.843Z,3.93
2018-09-04T14:48:01.469Z,3.83
2018-09-04T14:50:29.705Z,4.30
2018-09-04T14:52:57.991Z,4.07
2018-09-04T14:55:26.740Z,3.73
2018-09-04T14:57:55.020Z,3.80
2018-09-04T15:00:23.639Z,4.70
2018-09-04T15:02:52.404Z,4.10
2018-09-04T15:05:20.654Z,3.87
2018-09-04T15:07:49.144Z,4.17
2018-09-04T15:10:22.156Z,3.90
2018-09-04T15:12:50.493Z,3.93
2018-09-04T15:15:18.835Z,4.13
2018-09-04T15:17:47.828Z,3.73
2018-09-04T15:20:16.217Z,4.60
2018-09-04T15:22:44.603Z,4.20
2018-09-04T15:25:13.630Z,4.30
2018-09-04T15:27:41.854Z,3.90
2018-09-04T15:30:10.441Z,3.90
2018-09-04T15:32:39.078Z,4.10
2018-09-04T15:35:07.704Z,4.50
2018-09-04T15:37:35.945Z,4.13
2018-09-04T15:40:04.309Z,3.80
2018-09-04T15:42:32.522Z,4.13
2018-09-04T15:45:00.826Z,4.00
2018-09-04T15:47:29.202Z,3.50
2018-09-04T15:49:57.659Z,3.73
2018-09-04T15:52:25.988Z,3.30
2018-09-04T15:54:54.336Z,3.77
2018-09-04T15:57:22.587Z,4.07
2018-09-04T15:59:50.835Z,3.83
2018-09-04T16:02:19.227Z,3.73
2018-09-04T16:10:59.659Z,3.43
2018-09-04T16:13:37.543Z,3.20
2018-09-04T16:16:06.430Z,3.30
2018-09-04T16:18:34.678Z,3.30
2018-09-04T16:21:02.870Z,3.40
2018-09-04T16:23:31.174Z,3.73
2018-09-04T16:25:59.746Z,4.30
2018-09-04T16:28:28.035Z,3.80
2018-09-04T16:30:56.344Z,3.23
2018-09-04T16:33:24.797Z,3.90
2018-09-04T16:35:53.183Z,3.90
2018-09-04T16:38:27.514Z,3.90
2018-09-04T16:40:55.905Z,3.87
2018-09-04T16:43:24.385Z,3.33
2018-09-04T16:45:52.884Z,4.00
2018-09-04T16:48:21.241Z,4.00
2018-09-04T16:50:49.661Z,3.47
2018-09-04T16:53:18.077Z,3.53
2018-09-04T16:55:46.612Z,3.53
2018-09-04T16:58:14.972Z,5.10
2018-09-04T17:00:43.274Z,3.90
2018-09-04T17:03:11.878Z,4.50
2018-09-04T17:05:40.545Z,3.67
2018-09-04T17:08:09.526Z,3.90
2018-09-04T17:10:38.343Z,3.60
2018-09-04T17:13:07.440Z,3.77
2018-09-04T17:15:35.899Z,3.60
2018-09-04T17:18:04.227Z,3.93
2018-09-04T17:20:32.581Z,3.77
2018-09-04T17:23:00.974Z,3.83
2018-09-04T17:25:29.305Z,3.90
2018-09-04T17:28:00.000Z,3.60
2018-09-04T17:30:28.307Z,4.07
2018-09-04T17:32:56.651Z,3.93
2018-09-04T17:35:25.460Z,4.03
2018-09-04T17:37:53.776Z,4.40
2018-09-04T17:40:22.393Z,4.50
2018-09-04T17:42:51.048Z,4.83
2018-09-04T17:45:19.421Z,4.53
2018-09-04T17:47:47.752Z,4.40
2018-09-04T17:50:16.026Z,4.97
2018-09-04T17:52:44.694Z,4.27
2018-09-04T17:55:13.144Z,4.87
2018-09-04T17:57:41.418Z,3.93
2018-09-04T18:00:09.812Z,4.97
2018-09-04T18:02:38.228Z,4.20
2018-09-04T18:05:06.554Z,4.47
2018-09-04T18:07:34.931Z,4.97
2018-09-04T18:10:03.368Z,5.27
2018-09-04T18:12:32.204Z,4.93
2018-09-04T18:15:00.574Z,4.93
2018-09-04T18:17:28.955Z,4.43
2018-09-04T18:19:57.261Z,4.57
2018-09-04T18:22:26.221Z,3.70
2018-09-04T18:24:54.782Z,4.00
2018-09-04T18:27:23.052Z,4.80
2018-09-04T18:29:51.773Z,3.73
2018-09-04T18:32:20.208Z,4.00
2018-09-04T18:34:48.684Z,4.50
2018-09-04T18:37:17.347Z,4.47
2018-09-04T18:39:45.658Z,4.77
2018-09-04T18:42:14.177Z,4.67
2018-09-04T18:44:42.716Z,3.93
2018-09-04T18:47:11.607Z,4.97
2018-09-04T18:49:40.204Z,4.37
2018-09-04T18:52:08.599Z,3.87
2018-09-04T18:54:36.968Z,4.57
2018-09-04T18:57:05.530Z,5.20
2018-09-04T18:59:34.660Z,4.60
2018-09-04T19:02:03.495Z,5.20
2018-09-04T19:04:32.132Z,4.47
2018-09-04T19:07:01.223Z,4.27
2018-09-04T19:09:29.703Z,4.50
2018-09-04T19:11:58.334Z,4.43
2018-09-04T19:14:27.352Z,5.50
2018-09-04T19:16:57.060Z,4.53
2018-09-04T19:19:25.581Z,4.97
2018-09-04T19:21:53.903Z,4.80
2018-09-04T19:24:22.357Z,5.00
2018-09-04T19:26:50.853Z,4.70
2018-09-04T19:29:19.371Z,5.27
2018-09-04T19:31:48.289Z,3.90
2018-09-04T19:34:16.947Z,4.87
2018-09-04T19:36:45.765Z,4.83
2018-09-04T19:39:15.748Z,5.17
2018-09-04T19:41:44.519Z,5.37
2018-09-04T19:44:12.859Z,5.57
2018-09-04T19:46:41.218Z,4.40
2018-09-04T19:49:09.645Z,4.00
2018-09-04T19:51:38.089Z,6.33
2018-09-04T19:54:06.643Z,6.00
2018-09-04T19:56:35.363Z,5.20
2018-09-04T19:59:04.006Z,4.77
2018-09-04T20:01:33.097Z,5.33
2018-09-04T20:04:02.010Z,4.63
2018-09-04T20:06:30.474Z,5.00
2018-09-04T20:08:59.058Z,4.40
2018-09-04T20:11:27.385Z,4.97
2018-09-04T20:13:56.121Z,4.57
2018-09-04T20:16:24.624Z,5.00
2018-09-04T20:18:53.554Z,5.03
2018-09-04T20:21:22.008Z,4.70
2018-09-04T20:23:53.414Z,4.60
2018-09-04T20:26:21.865Z,5.47
2018-09-04T20:28:50.320Z,4.47
2018-09-04T20:31:18.653Z,4.70
2018-09-04T20:33:47.007Z,4.33
2018-09-04T20:36:15.490Z,5.27
2018-09-04T20:38:43.964Z,4.90
2018-09-04T20:41:12.427Z,5.13
2018-09-04T20:43:40.639Z,5.67
2018-09-04T20:46:09.045Z,4.63
2018-09-04T20:48:37.602Z,4.87
2018-09-04T20:51:06.403Z,4.83
2018-09-04T20:53:35.641Z,4.97
2018-09-04T20:56:04.071Z,4.70
2018-09-04T20:59:08.940Z,4.73
2018-09-04T21:02:13.463Z,3.93
2018-09-04T21:05:18.354Z,4.20
2018-09-04T21:08:48.490Z,4.50
2018-09-04T21:11:17.150Z,4.83
2018-09-04T21:13:45.992Z,4.43
2018-09-04T21:16:14.367Z,4.87
2018-09-04T21:18:43.106Z,4.90
2018-09-04T21:21:11.802Z,4.40
2018-09-04T21:23:40.168Z,4.90
2018-09-04T21:26:09.174Z,5.70
2018-09-04T21:28:38.771Z,5.20
2018-09-04T21:31:07.763Z,5.40
2018-09-04T21:33:36.140Z,5.43
2018-09-04T21:36:04.440Z,5.60
2018-09-04T21:38:33.133Z,5.30
2018-09-04T21:41:01.874Z,5.07
2018-09-04T21:43:30.796Z,5.13
2018-09-04T21:45:59.153Z,5.40
2018-09-04T21:48:27.797Z,5.27
2018-09-04T21:50:56.113Z,5.07
2018-09-04T21:53:24.783Z,5.00
2018-09-04T21:55:53.115Z,4.80
2018-09-04T21:58:21.409Z,5.43
2018-09-04T22:00:49.680Z,4.77
2018-09-04T22:03:18.204Z,5.20
2018-09-04T22:05:46.859Z,5.87
2018-09-04T22:08:15.571Z,5.67
2018-09-04T22:10:44.054Z,6.03
2018-09-04T22:13:12.991Z,5.90
2018-09-04T22:15:41.382Z,5.60
2018-09-04T22:18:10.067Z,5.50
2018-09-04T22:20:38.967Z,5.47
2018-09-04T22:23:07.350Z,5.47
2018-09-04T22:25:36.031Z,5.27
2018-09-04T22:28:04.276Z,5.53
2018-09-04T22:30:32.611Z,5.73
2018-09-04T22:33:00.765Z,5.17
2018-09-04T22:35:29.035Z,5.70
2018-09-04T22:37:57.324Z,5.43
2018-09-04T22:40:25.476Z,6.13
2018-09-04T22:42:53.680Z,5.87
2018-09-04T22:45:22.068Z,5.97
2018-09-04T22:47:50.335Z,5.50
2018-09-04T22:50:36.460Z,6.70
2018-09-04T22:53:04.787Z,5.63
2018-09-04T22:55:33.061Z,6.13
2018-09-04T22:58:01.415Z,5.97
2018-09-04T23:00:29.690Z,6.43
2018-09-04T23:02:57.929Z,6.43
2018-09-04T23:05:26.230Z,6.23
2018-09-04T23:07:54.475Z,6.47
2018-09-04T23:10:22.709Z,6.07
2018-09-04T23:12:50.980Z,6.70
2018-09-04T23:15:19.170Z,6.67
2018-09-04T23:17:47.446Z,6.33
2018-09-04T23:20:15.645Z,7.27
2018-09-04T23:22:43.876Z,7.00
2018-09-04T23:25:12.158Z,7.23
2018-09-04T23:27:40.466Z,6.53
2018-09-04T23:30:09.074Z,6.90
2018-09-04T23:32:38.228Z,6.47
2018-09-04T23:35:06.613Z,6.23
2018-09-04T23:37:34.868Z,7.33
2018-09-04T23:40:03.186Z,7.13
2018-09-04T23:42:31.626Z,6.93
2018-09-04T23:45:00.320Z,7.40
2018-09-04T23:47:28.563Z,6.50
2018-09-04T23:49:56.795Z,7.60
2018-09-04T23:52:25.051Z,7.87
2018-09-04T23:54:53.315Z,7.00
2018-09-04T23:57:21.528Z,7.10
2018-09-04T23:59:49.727Z,7.37
